Indianapolis/Eagle Creek Airpark, Indiana
Current Conditions -  °F | °C
As of 8:53 AM on Monday 26 Jan 2015 (Local Time) from KEYE Reporting Station
Scattered Clouds Scattered Clouds  
Wind Chill: 12°   Ceiling: Unl
Heat Index: 21°   Visibility: 10mi
Dew Point: 13°   Wind: 7mph
Humidity: 71%   Direction: 360°N
Pressure: 29.94"   Gusts: NA
Location:  39.83°N, 86.3°W
Report Text: KEYE 261353Z AUTO 36006KT 10SM SCT018 M06/M11 A2994 RMK AO2 SLP150 T10611106
Loading
Personal Weather Stations






























Interactive Weather Map New forecast layout! Learn more

10-Day Weather Forecast

Advertisements
Track Severe Weather on mobile